sensor_id;sensor_type;location;lat;lon;timestamp;temperature;humidity
78788;DHT22;68131;52.508;5.502;2023-07-31T00:02:26;18.10;75.00
78788;DHT22;68131;52.508;5.502;2023-07-31T00:04:55;18.10;75.00
78788;DHT22;68131;52.508;5.502;2023-07-31T00:07:25;18.00;75.00
78788;DHT22;68131;52.508;5.502;2023-07-31T00:09:54;18.00;75.00
78788;DHT22;68131;52.508;5.502;2023-07-31T00:12:26;18.00;74.90
78788;DHT22;68131;52.508;5.502;2023-07-31T00:14:56;18.10;74.90
78788;DHT22;68131;52.508;5.502;2023-07-31T00:17:25;18.10;74.90
78788;DHT22;68131;52.508;5.502;2023-07-31T00:19:54;18.10;74.90
78788;DHT22;68131;52.508;5.502;2023-07-31T00:22:26;18.10;75.00
78788;DHT22;68131;52.508;5.502;2023-07-31T00:24:56;18.10;74.90
78788;DHT22;68131;52.508;5.502;2023-07-31T00:27:28;18.10;74.90
78788;DHT22;68131;52.508;5.502;2023-07-31T00:29:57;18.20;74.90
78788;DHT22;68131;52.508;5.502;2023-07-31T00:32:26;18.20;74.90
78788;DHT22;68131;52.508;5.502;2023-07-31T00:34:55;18.20;74.80
78788;DHT22;68131;52.508;5.502;2023-07-31T00:37:25;18.20;74.80
78788;DHT22;68131;52.508;5.502;2023-07-31T00:39:54;18.30;74.80
78788;DHT22;68131;52.508;5.502;2023-07-31T00:42:24;18.30;74.70
78788;DHT22;68131;52.508;5.502;2023-07-31T00:44:56;18.30;74.90
78788;DHT22;68131;52.508;5.502;2023-07-31T00:47:25;18.30;74.90
78788;DHT22;68131;52.508;5.502;2023-07-31T00:49:54;18.30;74.90
78788;DHT22;68131;52.508;5.502;2023-07-31T00:52:24;18.40;75.00
78788;DHT22;68131;52.508;5.502;2023-07-31T00:54:53;18.40;75.00
78788;DHT22;68131;52.508;5.502;2023-07-31T00:57:25;18.40;75.10
78788;DHT22;68131;52.508;5.502;2023-07-31T00:59:57;18.40;75.60
78788;DHT22;68131;52.508;5.502;2023-07-31T01:02:26;18.40;75.70
78788;DHT22;68131;52.508;5.502;2023-07-31T01:04:56;18.40;75.70
78788;DHT22;68131;52.508;5.502;2023-07-31T01:07:32;18.40;75.80
78788;DHT22;68131;52.508;5.502;2023-07-31T01:10:13;18.50;75.90
78788;DHT22;68131;52.508;5.502;2023-07-31T01:12:45;18.50;76.00
78788;DHT22;68131;52.508;5.502;2023-07-31T01:15:17;18.60;76.20
78788;DHT22;68131;52.508;5.502;2023-07-31T01:17:49;18.60;76.20
78788;DHT22;68131;52.508;5.502;2023-07-31T01:20:21;18.70;76.40
78788;DHT22;68131;52.508;5.502;2023-07-31T01:23:15;18.70;76.30
78788;DHT22;68131;52.508;5.502;2023-07-31T01:25:56;18.70;76.50
78788;DHT22;68131;52.508;5.502;2023-07-31T01:28:36;18.70;76.50
78788;DHT22;68131;52.508;5.502;2023-07-31T01:31:11;18.70;76.50
78788;DHT22;68131;52.508;5.502;2023-07-31T01:33:41;18.70;76.90
78788;DHT22;68131;52.508;5.502;2023-07-31T01:36:11;18.70;77.00
78788;DHT22;68131;52.508;5.502;2023-07-31T01:38:41;18.70;77.00
78788;DHT22;68131;52.508;5.502;2023-07-31T01:41:16;18.70;76.90
78788;DHT22;68131;52.508;5.502;2023-07-31T01:43:47;18.70;77.10
78788;DHT22;68131;52.508;5.502;2023-07-31T01:46:16;18.70;77.00
78788;DHT22;68131;52.508;5.502;2023-07-31T01:48:45;18.80;77.00
78788;DHT22;68131;52.508;5.502;2023-07-31T01:51:15;18.80;77.00
78788;DHT22;68131;52.508;5.502;2023-07-31T01:53:44;18.80;77.30
78788;DHT22;68131;52.508;5.502;2023-07-31T01:56:16;18.80;77.30
78788;DHT22;68131;52.508;5.502;2023-07-31T01:58:45;18.80;77.50
78788;DHT22;68131;52.508;5.502;2023-07-31T02:01:14;18.70;77.50
78788;DHT22;68131;52.508;5.502;2023-07-31T02:03:46;18.70;77.60
78788;DHT22;68131;52.508;5.502;2023-07-31T02:06:15;18.80;77.40
78788;DHT22;68131;52.508;5.502;2023-07-31T02:08:44;18.80;77.50
78788;DHT22;68131;52.508;5.502;2023-07-31T02:11:16;18.70;77.50
78788;DHT22;68131;52.508;5.502;2023-07-31T02:13:45;18.70;77.70
78788;DHT22;68131;52.508;5.502;2023-07-31T02:16:16;18.70;77.90
78788;DHT22;68131;52.508;5.502;2023-07-31T02:18:48;18.70;78.00
78788;DHT22;68131;52.508;5.502;2023-07-31T02:21:18;18.70;78.10
78788;DHT22;68131;52.508;5.502;2023-07-31T02:23:44;18.70;78.10
78788;DHT22;68131;52.508;5.502;2023-07-31T02:26:19;18.70;78.20
78788;DHT22;68131;52.508;5.502;2023-07-31T02:28:48;18.60;78.20
78788;DHT22;68131;52.508;5.502;2023-07-31T02:31:17;18.50;78.10
78788;DHT22;68131;52.508;5.502;2023-07-31T02:33:48;18.50;78.00
78788;DHT22;68131;52.508;5.502;2023-07-31T02:36:20;18.50;78.00
78788;DHT22;68131;52.508;5.502;2023-07-31T02:38:50;18.50;78.10
78788;DHT22;68131;52.508;5.502;2023-07-31T02:41:21;18.50;78.10
78788;DHT22;68131;52.508;5.502;2023-07-31T02:43:51;18.50;78.00
78788;DHT22;68131;52.508;5.502;2023-07-31T02:46:20;18.60;78.10
78788;DHT22;68131;52.508;5.502;2023-07-31T02:48:50;18.60;78.10
78788;DHT22;68131;52.508;5.502;2023-07-31T02:51:20;18.60;78.10
78788;DHT22;68131;52.508;5.502;2023-07-31T02:53:49;18.60;78.10
78788;DHT22;68131;52.508;5.502;2023-07-31T02:56:21;18.60;78.10
78788;DHT22;68131;52.508;5.502;2023-07-31T02:58:50;18.60;78.10
78788;DHT22;68131;52.508;5.502;2023-07-31T03:01:19;18.60;78.20
78788;DHT22;68131;52.508;5.502;2023-07-31T03:03:49;18.60;78.30
78788;DHT22;68131;52.508;5.502;2023-07-31T03:06:18;18.60;78.30
78788;DHT22;68131;52.508;5.502;2023-07-31T03:08:48;18.60;78.40
78788;DHT22;68131;52.508;5.502;2023-07-31T03:11:17;18.60;78.30
78788;DHT22;68131;52.508;5.502;2023-07-31T03:13:51;18.60;78.30
78788;DHT22;68131;52.508;5.502;2023-07-31T03:16:22;18.60;78.40
78788;DHT22;68131;52.508;5.502;2023-07-31T03:18:52;18.60;78.40
78788;DHT22;68131;52.508;5.502;2023-07-31T03:21:21;18.60;78.40
78788;DHT22;68131;52.508;5.502;2023-07-31T03:23:50;18.60;78.30
78788;DHT22;68131;52.508;5.502;2023-07-31T03:26:19;18.60;78.30
78788;DHT22;68131;52.508;5.502;2023-07-31T03:28:54;18.60;78.30
78788;DHT22;68131;52.508;5.502;2023-07-31T03:31:23;18.60;78.20
78788;DHT22;68131;52.508;5.502;2023-07-31T03:33:52;18.60;78.20
78788;DHT22;68131;52.508;5.502;2023-07-31T03:36:23;18.60;78.20
78788;DHT22;68131;52.508;5.502;2023-07-31T03:38:53;18.60;78.30
78788;DHT22;68131;52.508;5.502;2023-07-31T03:41:25;18.60;78.30
78788;DHT22;68131;52.508;5.502;2023-07-31T03:43:58;18.60;78.30
78788;DHT22;68131;52.508;5.502;2023-07-31T03:46:28;18.50;78.30
78788;DHT22;68131;52.508;5.502;2023-07-31T03:48:57;18.50;78.30
78788;DHT22;68131;52.508;5.502;2023-07-31T03:51:29;18.50;78.30
78788;DHT22;68131;52.508;5.502;2023-07-31T03:53:58;18.50;78.30
78788;DHT22;68131;52.508;5.502;2023-07-31T03:56:28;18.50;78.30
78788;DHT22;68131;52.508;5.502;2023-07-31T03:58:59;18.50;78.30
78788;DHT22;68131;52.508;5.502;2023-07-31T04:01:29;18.50;78.30
78788;DHT22;68131;52.508;5.502;2023-07-31T04:04:03;18.50;78.30
78788;DHT22;68131;52.508;5.502;2023-07-31T04:06:33;18.50;78.30
78788;DHT22;68131;52.508;5.502;2023-07-31T04:09:02;18.50;78.20
78788;DHT22;68131;52.508;5.502;2023-07-31T04:11:31;18.50;78.20
78788;DHT22;68131;52.508;5.502;2023-07-31T04:14:03;18.50;78.10
78788;DHT22;68131;52.508;5.502;2023-07-31T04:16:32;18.50;78.10
78788;DHT22;68131;52.508;5.502;2023-07-31T04:19:01;18.60;78.00
78788;DHT22;68131;52.508;5.502;2023-07-31T04:21:31;18.60;78.00
78788;DHT22;68131;52.508;5.502;2023-07-31T04:24:00;18.60;78.00
78788;DHT22;68131;52.508;5.502;2023-07-31T04:26:29;18.50;78.00
78788;DHT22;68131;52.508;5.502;2023-07-31T04:28:58;18.50;78.10
78788;DHT22;68131;52.508;5.502;2023-07-31T04:31:33;18.50;78.00
78788;DHT22;68131;52.508;5.502;2023-07-31T04:34:03;18.50;78.00
78788;DHT22;68131;52.508;5.502;2023-07-31T04:36:33;18.50;78.00
78788;DHT22;68131;52.508;5.502;2023-07-31T04:39:02;18.60;78.00
78788;DHT22;68131;52.508;5.502;2023-07-31T04:41:31;18.60;77.90
78788;DHT22;68131;52.508;5.502;2023-07-31T04:44:04;18.60;77.90
78788;DHT22;68131;52.508;5.502;2023-07-31T04:46:35;18.60;77.80
78788;DHT22;68131;52.508;5.502;2023-07-31T04:49:05;18.60;77.80
78788;DHT22;68131;52.508;5.502;2023-07-31T04:51:34;18.60;77.80
78788;DHT22;68131;52.508;5.502;2023-07-31T04:54:03;18.60;77.80
78788;DHT22;68131;52.508;5.502;2023-07-31T04:56:32;18.60;77.80
78788;DHT22;68131;52.508;5.502;2023-07-31T04:59:01;18.60;77.80
78788;DHT22;68131;52.508;5.502;2023-07-31T05:01:31;18.60;77.80
78788;DHT22;68131;52.508;5.502;2023-07-31T05:04:03;18.60;77.70
78788;DHT22;68131;52.508;5.502;2023-07-31T05:06:36;18.60;77.70
78788;DHT22;68131;52.508;5.502;2023-07-31T05:09:05;18.60;77.80
78788;DHT22;68131;52.508;5.502;2023-07-31T05:11:35;18.60;77.80
78788;DHT22;68131;52.508;5.502;2023-07-31T05:14:06;18.60;77.70
78788;DHT22;68131;52.508;5.502;2023-07-31T05:16:35;18.60;77.70
78788;DHT22;68131;52.508;5.502;2023-07-31T05:19:07;18.60;77.70
78788;DHT22;68131;52.508;5.502;2023-07-31T05:21:36;18.70;77.70
78788;DHT22;68131;52.508;5.502;2023-07-31T05:24:07;18.60;77.60
78788;DHT22;68131;52.508;5.502;2023-07-31T05:26:36;18.70;77.60
78788;DHT22;68131;52.508;5.502;2023-07-31T05:29:06;18.70;77.60
78788;DHT22;68131;52.508;5.502;2023-07-31T05:31:38;18.60;77.60
78788;DHT22;68131;52.508;5.502;2023-07-31T05:34:10;18.60;77.60
78788;DHT22;68131;52.508;5.502;2023-07-31T05:36:39;18.60;77.70
78788;DHT22;68131;52.508;5.502;2023-07-31T05:39:11;18.60;77.80
78788;DHT22;68131;52.508;5.502;2023-07-31T05:41:40;18.60;77.80
78788;DHT22;68131;52.508;5.502;2023-07-31T05:44:10;18.60;77.90
78788;DHT22;68131;52.508;5.502;2023-07-31T05:46:39;18.60;77.80
78788;DHT22;68131;52.508;5.502;2023-07-31T05:49:10;18.60;77.70
78788;DHT22;68131;52.508;5.502;2023-07-31T05:51:40;18.60;77.80
78788;DHT22;68131;52.508;5.502;2023-07-31T05:54:09;18.60;77.80
78788;DHT22;68131;52.508;5.502;2023-07-31T05:56:39;18.50;77.80
78788;DHT22;68131;52.508;5.502;2023-07-31T05:59:09;18.50;77.90
78788;DHT22;68131;52.508;5.502;2023-07-31T06:01:38;18.50;77.90
78788;DHT22;68131;52.508;5.502;2023-07-31T06:04:10;18.50;77.80
78788;DHT22;68131;52.508;5.502;2023-07-31T06:06:42;18.50;77.80
78788;DHT22;68131;52.508;5.502;2023-07-31T06:09:11;18.50;77.90
78788;DHT22;68131;52.508;5.502;2023-07-31T06:11:41;18.50;77.90
78788;DHT22;68131;52.508;5.502;2023-07-31T06:14:13;18.50;77.90
78788;DHT22;68131;52.508;5.502;2023-07-31T06:16:43;18.50;77.80
78788;DHT22;68131;52.508;5.502;2023-07-31T06:19:15;18.60;77.80
78788;DHT22;68131;52.508;5.502;2023-07-31T06:21:44;18.60;77.80
78788;DHT22;68131;52.508;5.502;2023-07-31T06:24:16;18.60;77.70
78788;DHT22;68131;52.508;5.502;2023-07-31T06:26:46;18.60;77.70
78788;DHT22;68131;52.508;5.502;2023-07-31T06:29:17;18.60;77.60
78788;DHT22;68131;52.508;5.502;2023-07-31T06:31:46;18.50;77.70
78788;DHT22;68131;52.508;5.502;2023-07-31T06:34:18;18.50;77.70
78788;DHT22;68131;52.508;5.502;2023-07-31T06:36:47;18.50;77.60
78788;DHT22;68131;52.508;5.502;2023-07-31T06:39:16;18.50;77.70
78788;DHT22;68131;52.508;5.502;2023-07-31T06:41:45;18.40;77.60
78788;DHT22;68131;52.508;5.502;2023-07-31T06:44:14;18.40;77.80
78788;DHT22;68131;52.508;5.502;2023-07-31T06:46:44;18.40;77.80
78788;DHT22;68131;52.508;5.502;2023-07-31T06:49:13;18.40;77.90
78788;DHT22;68131;52.508;5.502;2023-07-31T06:51:45;18.50;78.00
78788;DHT22;68131;52.508;5.502;2023-07-31T06:54:14;18.70;77.50
78788;DHT22;68131;52.508;5.502;2023-07-31T06:56:44;18.70;77.30
78788;DHT22;68131;52.508;5.502;2023-07-31T06:59:13;18.80;77.30
78788;DHT22;68131;52.508;5.502;2023-07-31T07:01:42;18.80;77.30
78788;DHT22;68131;52.508;5.502;2023-07-31T07:04:11;18.70;77.30
78788;DHT22;68131;52.508;5.502;2023-07-31T07:06:41;18.70;77.40
78788;DHT22;68131;52.508;5.502;2023-07-31T07:09:12;18.60;77.50
78788;DHT22;68131;52.508;5.502;2023-07-31T07:11:42;18.60;77.60
78788;DHT22;68131;52.508;5.502;2023-07-31T07:14:11;18.70;77.70
78788;DHT22;68131;52.508;5.502;2023-07-31T07:16:40;18.70;77.70
78788;DHT22;68131;52.508;5.502;2023-07-31T07:19:10;18.70;77.70
78788;DHT22;68131;52.508;5.502;2023-07-31T07:21:39;18.70;77.70
78788;DHT22;68131;52.508;5.502;2023-07-31T07:24:08;18.80;77.70
78788;DHT22;68131;52.508;5.502;2023-07-31T07:26:40;18.80;77.70
78788;DHT22;68131;52.508;5.502;2023-07-31T07:29:12;18.80;77.70
78788;DHT22;68131;52.508;5.502;2023-07-31T07:31:41;18.80;77.80
78788;DHT22;68131;52.508;5.502;2023-07-31T07:34:10;18.90;77.90
78788;DHT22;68131;52.508;5.502;2023-07-31T07:36:39;18.90;77.90
78788;DHT22;68131;52.508;5.502;2023-07-31T07:39:10;18.90;77.90
78788;DHT22;68131;52.508;5.502;2023-07-31T07:41:42;18.90;77.90
78788;DHT22;68131;52.508;5.502;2023-07-31T07:44:12;19.00;77.90
78788;DHT22;68131;52.508;5.502;2023-07-31T07:46:41;19.00;78.00
78788;DHT22;68131;52.508;5.502;2023-07-31T07:49:10;19.00;78.10
78788;DHT22;68131;52.508;5.502;2023-07-31T07:51:40;19.00;78.20
78788;DHT22;68131;52.508;5.502;2023-07-31T07:54:09;19.00;78.10
78788;DHT22;68131;52.508;5.502;2023-07-31T07:56:38;19.00;78.10
78788;DHT22;68131;52.508;5.502;2023-07-31T07:59:10;19.10;78.20
78788;DHT22;68131;52.508;5.502;2023-07-31T08:01:39;19.00;78.30
78788;DHT22;68131;52.508;5.502;2023-07-31T08:04:09;19.00;78.30
78788;DHT22;68131;52.508;5.502;2023-07-31T08:06:38;19.00;78.40
78788;DHT22;68131;52.508;5.502;2023-07-31T08:09:07;19.00;78.40
78788;DHT22;68131;52.508;5.502;2023-07-31T08:11:37;19.10;78.40
78788;DHT22;68131;52.508;5.502;2023-07-31T08:14:06;19.10;78.40
78788;DHT22;68131;52.508;5.502;2023-07-31T08:16:38;19.20;78.30
78788;DHT22;68131;52.508;5.502;2023-07-31T08:19:07;19.20;78.30
78788;DHT22;68131;52.508;5.502;2023-07-31T08:21:36;19.20;78.40
78788;DHT22;68131;52.508;5.502;2023-07-31T08:24:08;19.20;78.30
78788;DHT22;68131;52.508;5.502;2023-07-31T08:26:40;19.30;78.10
78788;DHT22;68131;52.508;5.502;2023-07-31T08:29:14;19.30;78.20
78788;DHT22;68131;52.508;5.502;2023-07-31T08:31:46;19.30;78.20
78788;DHT22;68131;52.508;5.502;2023-07-31T08:34:15;19.40;78.20
78788;DHT22;68131;52.508;5.502;2023-07-31T08:36:44;19.40;78.30
78788;DHT22;68131;52.508;5.502;2023-07-31T08:39:13;19.40;78.40
78788;DHT22;68131;52.508;5.502;2023-07-31T08:41:43;19.40;78.50
78788;DHT22;68131;52.508;5.502;2023-07-31T08:44:12;19.50;78.60
78788;DHT22;68131;52.508;5.502;2023-07-31T08:46:48;19.50;78.50
78788;DHT22;68131;52.508;5.502;2023-07-31T08:49:17;19.60;78.60
78788;DHT22;68131;52.508;5.502;2023-07-31T08:51:50;19.60;78.60
78788;DHT22;68131;52.508;5.502;2023-07-31T08:54:20;19.60;78.60
78788;DHT22;68131;52.508;5.502;2023-07-31T08:56:50;19.70;78.80
78788;DHT22;68131;52.508;5.502;2023-07-31T08:59:20;19.70;78.80
78788;DHT22;68131;52.508;5.502;2023-07-31T09:01:55;19.70;78.70
78788;DHT22;68131;52.508;5.502;2023-07-31T09:04:25;19.70;78.80
78788;DHT22;68131;52.508;5.502;2023-07-31T09:06:59;19.70;78.90
78788;DHT22;68131;52.508;5.502;2023-07-31T09:09:32;19.70;78.90
78788;DHT22;68131;52.508;5.502;2023-07-31T09:12:02;19.80;78.80
78788;DHT22;68131;52.508;5.502;2023-07-31T09:14:32;19.80;78.90
78788;DHT22;68131;52.508;5.502;2023-07-31T09:17:05;19.90;78.90
78788;DHT22;68131;52.508;5.502;2023-07-31T09:19:35;20.00;78.80
78788;DHT22;68131;52.508;5.502;2023-07-31T09:22:06;20.00;78.70
78788;DHT22;68131;52.508;5.502;2023-07-31T09:24:35;20.10;78.60
78788;DHT22;68131;52.508;5.502;2023-07-31T09:27:06;20.10;78.60
78788;DHT22;68131;52.508;5.502;2023-07-31T09:29:35;20.00;78.60
78788;DHT22;68131;52.508;5.502;2023-07-31T09:32:16;20.10;78.70
78788;DHT22;68131;52.508;5.502;2023-07-31T09:34:45;20.10;78.70
78788;DHT22;68131;52.508;5.502;2023-07-31T09:37:15;20.10;78.70
78788;DHT22;68131;52.508;5.502;2023-07-31T09:39:48;20.10;78.70
78788;DHT22;68131;52.508;5.502;2023-07-31T09:42:25;20.10;78.70
78788;DHT22;68131;52.508;5.502;2023-07-31T09:45:07;20.10;78.80
78788;DHT22;68131;52.508;5.502;2023-07-31T09:47:46;20.00;78.90
78788;DHT22;68131;52.508;5.502;2023-07-31T09:50:15;20.00;79.00
78788;DHT22;68131;52.508;5.502;2023-07-31T09:52:45;20.10;79.10
78788;DHT22;68131;52.508;5.502;2023-07-31T09:55:14;20.10;79.10
78788;DHT22;68131;52.508;5.502;2023-07-31T09:57:46;20.10;79.10
78788;DHT22;68131;52.508;5.502;2023-07-31T10:00:17;20.10;79.10
78788;DHT22;68131;52.508;5.502;2023-07-31T10:02:51;20.10;79.10
78788;DHT22;68131;52.508;5.502;2023-07-31T10:05:21;20.10;79.10
78788;DHT22;68131;52.508;5.502;2023-07-31T10:07:53;20.20;79.20
78788;DHT22;68131;52.508;5.502;2023-07-31T10:10:23;20.20;79.20
78788;DHT22;68131;52.508;5.502;2023-07-31T10:12:54;20.20;79.30
78788;DHT22;68131;52.508;5.502;2023-07-31T10:15:25;20.20;79.20
78788;DHT22;68131;52.508;5.502;2023-07-31T10:17:58;20.20;79.20
78788;DHT22;68131;52.508;5.502;2023-07-31T10:20:30;20.10;79.20
78788;DHT22;68131;52.508;5.502;2023-07-31T10:23:01;20.10;79.30
78788;DHT22;68131;52.508;5.502;2023-07-31T10:25:32;20.10;79.40
78788;DHT22;68131;52.508;5.502;2023-07-31T10:28:02;20.10;79.50
78788;DHT22;68131;52.508;5.502;2023-07-31T10:30:33;20.10;79.50
78788;DHT22;68131;52.508;5.502;2023-07-31T10:33:09;20.20;79.60
78788;DHT22;68131;52.508;5.502;2023-07-31T10:35:39;20.30;79.60
78788;DHT22;68131;52.508;5.502;2023-07-31T10:38:10;20.40;79.70
78788;DHT22;68131;52.508;5.502;2023-07-31T10:40:41;20.60;79.50
78788;DHT22;68131;52.508;5.502;2023-07-31T10:43:24;20.80;79.30
78788;DHT22;68131;52.508;5.502;2023-07-31T10:45:54;20.80;79.10
78788;DHT22;68131;52.508;5.502;2023-07-31T10:48:33;20.90;78.70
78788;DHT22;68131;52.508;5.502;2023-07-31T10:51:06;20.90;78.70
78788;DHT22;68131;52.508;5.502;2023-07-31T10:53:40;20.90;78.60
78788;DHT22;68131;52.508;5.502;2023-07-31T10:56:10;20.80;78.50
78788;DHT22;68131;52.508;5.502;2023-07-31T10:59:01;20.80;78.60
78788;DHT22;68131;52.508;5.502;2023-07-31T11:01:51;20.80;78.70
78788;DHT22;68131;52.508;5.502;2023-07-31T11:04:32;20.80;78.80
78788;DHT22;68131;52.508;5.502;2023-07-31T11:07:02;20.80;78.70
78788;DHT22;68131;52.508;5.502;2023-07-31T11:09:34;20.70;78.70
78788;DHT22;68131;52.508;5.502;2023-07-31T11:12:04;20.70;78.80
78788;DHT22;68131;52.508;5.502;2023-07-31T11:14:34;20.70;78.90
78788;DHT22;68131;52.508;5.502;2023-07-31T11:17:06;20.70;78.90
78788;DHT22;68131;52.508;5.502;2023-07-31T11:19:38;20.70;78.80
78788;DHT22;68131;52.508;5.502;2023-07-31T11:22:07;20.70;78.80
78788;DHT22;68131;52.508;5.502;2023-07-31T11:24:36;20.70;78.90
78788;DHT22;68131;52.508;5.502;2023-07-31T11:27:07;20.80;78.80
78788;DHT22;68131;52.508;5.502;2023-07-31T11:29:37;20.90;78.70
78788;DHT22;68131;52.508;5.502;2023-07-31T11:32:16;21.00;78.60
78788;DHT22;68131;52.508;5.502;2023-07-31T11:34:57;21.10;78.40
78788;DHT22;68131;52.508;5.502;2023-07-31T11:37:39;21.20;78.10
78788;DHT22;68131;52.508;5.502;2023-07-31T11:40:09;21.20;77.70
78788;DHT22;68131;52.508;5.502;2023-07-31T11:42:39;21.20;77.70
78788;DHT22;68131;52.508;5.502;2023-07-31T11:45:11;21.20;77.50
78788;DHT22;68131;52.508;5.502;2023-07-31T11:47:40;21.20;77.60
78788;DHT22;68131;52.508;5.502;2023-07-31T11:50:12;21.30;77.60
78788;DHT22;68131;52.508;5.502;2023-07-31T11:52:46;21.50;77.20
78788;DHT22;68131;52.508;5.502;2023-07-31T11:55:16;21.60;77.00
78788;DHT22;68131;52.508;5.502;2023-07-31T11:57:46;21.60;76.80
78788;DHT22;68131;52.508;5.502;2023-07-31T12:00:17;21.50;76.50
78788;DHT22;68131;52.508;5.502;2023-07-31T12:02:46;21.40;76.70
78788;DHT22;68131;52.508;5.502;2023-07-31T12:05:20;21.30;76.80
78788;DHT22;68131;52.508;5.502;2023-07-31T12:07:52;21.30;77.10
78788;DHT22;68131;52.508;5.502;2023-07-31T12:10:25;21.30;77.20
78788;DHT22;68131;52.508;5.502;2023-07-31T12:13:03;21.30;77.20
78788;DHT22;68131;52.508;5.502;2023-07-31T12:15:41;21.30;77.30
78788;DHT22;68131;52.508;5.502;2023-07-31T12:18:11;21.30;77.30
78788;DHT22;68131;52.508;5.502;2023-07-31T12:20:45;21.30;77.30
78788;DHT22;68131;52.508;5.502;2023-07-31T12:23:16;21.30;77.30
78788;DHT22;68131;52.508;5.502;2023-07-31T12:26:00;21.30;76.90
78788;DHT22;68131;52.508;5.502;2023-07-31T12:28:29;21.30;76.80
78788;DHT22;68131;52.508;5.502;2023-07-31T12:31:00;21.20;76.90
78788;DHT22;68131;52.508;5.502;2023-07-31T12:33:31;21.20;77.00
78788;DHT22;68131;52.508;5.502;2023-07-31T12:36:05;21.20;77.10
78788;DHT22;68131;52.508;5.502;2023-07-31T12:38:35;21.20;76.90
78788;DHT22;68131;52.508;5.502;2023-07-31T12:41:04;21.20;77.10
78788;DHT22;68131;52.508;5.502;2023-07-31T12:43:34;21.30;76.90
78788;DHT22;68131;52.508;5.502;2023-07-31T12:46:03;21.30;76.60
78788;DHT22;68131;52.508;5.502;2023-07-31T12:48:34;21.30;76.70
78788;DHT22;68131;52.508;5.502;2023-07-31T12:51:06;21.30;76.60
78788;DHT22;68131;52.508;5.502;2023-07-31T12:53:35;21.30;76.50
78788;DHT22;68131;52.508;5.502;2023-07-31T12:56:05;21.40;76.60
78788;DHT22;68131;52.508;5.502;2023-07-31T12:58:34;21.40;76.50
78788;DHT22;68131;52.508;5.502;2023-07-31T13:01:03;21.40;76.40
78788;DHT22;68131;52.508;5.502;2023-07-31T13:03:32;21.50;76.50
78788;DHT22;68131;52.508;5.502;2023-07-31T13:06:02;21.60;76.40
78788;DHT22;68131;52.508;5.502;2023-07-31T13:08:34;21.70;76.20
78788;DHT22;68131;52.508;5.502;2023-07-31T13:11:03;21.90;76.10
78788;DHT22;68131;52.508;5.502;2023-07-31T13:13:35;22.00;75.70
78788;DHT22;68131;52.508;5.502;2023-07-31T13:16:04;22.00;75.50
78788;DHT22;68131;52.508;5.502;2023-07-31T13:18:33;22.00;75.30
78788;DHT22;68131;52.508;5.502;2023-07-31T13:21:03;22.00;74.60
78788;DHT22;68131;52.508;5.502;2023-07-31T13:23:37;21.90;74.70
78788;DHT22;68131;52.508;5.502;2023-07-31T13:26:08;21.90;74.80
78788;DHT22;68131;52.508;5.502;2023-07-31T13:28:37;21.80;75.00
78788;DHT22;68131;52.508;5.502;2023-07-31T13:31:06;21.90;75.10
78788;DHT22;68131;52.508;5.502;2023-07-31T13:33:37;22.00;75.00
78788;DHT22;68131;52.508;5.502;2023-07-31T13:36:06;22.00;74.90
78788;DHT22;68131;52.508;5.502;2023-07-31T13:38:38;22.00;74.80
78788;DHT22;68131;52.508;5.502;2023-07-31T13:41:07;22.10;74.60
78788;DHT22;68131;52.508;5.502;2023-07-31T13:43:37;22.10;74.80
78788;DHT22;68131;52.508;5.502;2023-07-31T13:46:07;22.20;74.60
78788;DHT22;68131;52.508;5.502;2023-07-31T13:48:37;22.20;74.20
78788;DHT22;68131;52.508;5.502;2023-07-31T13:51:06;22.20;74.00
78788;DHT22;68131;52.508;5.502;2023-07-31T13:53:38;22.20;73.50
78788;DHT22;68131;52.508;5.502;2023-07-31T13:56:07;22.20;73.70
78788;DHT22;68131;52.508;5.502;2023-07-31T13:58:36;22.20;73.70
78788;DHT22;68131;52.508;5.502;2023-07-31T14:01:08;22.10;73.80
78788;DHT22;68131;52.508;5.502;2023-07-31T14:03:40;22.10;73.90
78788;DHT22;68131;52.508;5.502;2023-07-31T14:06:10;22.10;74.00
78788;DHT22;68131;52.508;5.502;2023-07-31T14:08:42;22.10;73.90
78788;DHT22;68131;52.508;5.502;2023-07-31T14:11:11;22.10;73.70
78788;DHT22;68131;52.508;5.502;2023-07-31T14:13:40;22.10;73.40
78788;DHT22;68131;52.508;5.502;2023-07-31T14:16:10;22.10;73.40
78788;DHT22;68131;52.508;5.502;2023-07-31T14:18:39;22.00;73.50
78788;DHT22;68131;52.508;5.502;2023-07-31T14:21:08;22.00;73.60
78788;DHT22;68131;52.508;5.502;2023-07-31T14:23:37;22.00;73.60
78788;DHT22;68131;52.508;5.502;2023-07-31T14:26:09;22.00;73.70
78788;DHT22;68131;52.508;5.502;2023-07-31T14:28:38;21.90;73.70
78788;DHT22;68131;52.508;5.502;2023-07-31T14:31:08;21.90;73.80
78788;DHT22;68131;52.508;5.502;2023-07-31T14:33:37;21.80;74.00
78788;DHT22;68131;52.508;5.502;2023-07-31T14:36:06;21.70;74.10
78788;DHT22;68131;52.508;5.502;2023-07-31T14:38:35;21.60;74.40
78788;DHT22;68131;52.508;5.502;2023-07-31T14:41:04;21.50;74.80
78788;DHT22;68131;52.508;5.502;2023-07-31T14:43:36;21.40;75.20
78788;DHT22;68131;52.508;5.502;2023-07-31T14:46:05;21.30;75.40
78788;DHT22;68131;52.508;5.502;2023-07-31T14:48:35;21.30;75.50
78788;DHT22;68131;52.508;5.502;2023-07-31T14:51:04;21.20;75.70
78788;DHT22;68131;52.508;5.502;2023-07-31T14:53:33;21.20;75.80
78788;DHT22;68131;52.508;5.502;2023-07-31T14:56:03;21.20;76.00
78788;DHT22;68131;52.508;5.502;2023-07-31T14:58:32;21.10;76.10
78788;DHT22;68131;52.508;5.502;2023-07-31T15:01:04;21.20;76.10
78788;DHT22;68131;52.508;5.502;2023-07-31T15:03:33;21.10;76.10
78788;DHT22;68131;52.508;5.502;2023-07-31T15:06:02;21.10;76.10
78788;DHT22;68131;52.508;5.502;2023-07-31T15:08:34;21.00;76.20
78788;DHT22;68131;52.508;5.502;2023-07-31T15:11:03;21.00;76.40
78788;DHT22;68131;52.508;5.502;2023-07-31T15:13:32;21.10;76.40
78788;DHT22;68131;52.508;5.502;2023-07-31T15:16:04;21.10;76.30
78788;DHT22;68131;52.508;5.502;2023-07-31T15:18:33;21.10;76.20
78788;DHT22;68131;52.508;5.502;2023-07-31T15:21:04;21.10;76.20
78788;DHT22;68131;52.508;5.502;2023-07-31T15:23:36;21.10;76.10
78788;DHT22;68131;52.508;5.502;2023-07-31T15:26:05;21.20;76.20
78788;DHT22;68131;52.508;5.502;2023-07-31T15:28:35;21.20;76.10
78788;DHT22;68131;52.508;5.502;2023-07-31T15:31:07;21.20;76.10
78788;DHT22;68131;52.508;5.502;2023-07-31T15:33:36;21.20;76.00
78788;DHT22;68131;52.508;5.502;2023-07-31T15:36:06;21.10;76.10
78788;DHT22;68131;52.508;5.502;2023-07-31T15:38:35;21.10;76.10
78788;DHT22;68131;52.508;5.502;2023-07-31T15:41:04;21.10;76.10
78788;DHT22;68131;52.508;5.502;2023-07-31T15:43:33;21.10;76.10
78788;DHT22;68131;52.508;5.502;2023-07-31T15:46:02;21.10;76.10
78788;DHT22;68131;52.508;5.502;2023-07-31T15:48:34;21.10;76.10
78788;DHT22;68131;52.508;5.502;2023-07-31T15:51:04;21.00;76.20
78788;DHT22;68131;52.508;5.502;2023-07-31T15:53:33;21.00;76.20